Time;durP1;ratioP1;P1;durP2;ratioP2;P2;SDS_P1;SDS_P2;PMS_P1;PMS_P2;Temp;Humidity;BMP_temperature;BMP_pressure;BME280_temperature;BME280_humidity;BME280_pressure;Samples;Min_cycle;Max_cycle;Signal;HPM_P1;HPM_P2
2022/10/01 00:02:10;;;;;;;4.10;2.40;;;10.20;82.80;;;;;;5003863;28;20156;-78
2022/10/01 00:04:36;;;;;;;5.38;2.40;;;10.40;82.30;;;;;;5008398;28;20034;-78
2022/10/01 00:07:03;;;;;;;3.42;2.17;;;10.40;82.20;;;;;;5007533;28;20061;-78
2022/10/01 00:09:30;;;;;;;7.45;2.10;;;10.40;82.10;;;;;;5006281;28;20049;-78
2022/10/01 00:11:58;;;;;;;6.45;2.28;;;10.50;81.80;;;;;;5001191;28;20132;-78
2022/10/01 00:14:24;;;;;;;6.20;2.15;;;10.50;81.50;;;;;;5009809;28;20036;-79
2022/10/01 00:16:50;;;;;;;4.28;2.22;;;10.60;81.50;;;;;;5002075;28;20400;-78
2022/10/01 00:19:15;;;;;;;6.30;2.08;;;10.50;81.80;;;;;;5001595;28;20092;-79
2022/10/01 00:21:41;;;;;;;4.57;2.13;;;10.50;82.20;;;;;;5004091;28;20030;-78
2022/10/01 00:24:06;;;;;;;7.53;2.30;;;10.50;82.00;;;;;;5005599;28;20033;-78
2022/10/01 00:26:34;;;;;;;4.03;2.20;;;10.50;82.00;;;;;;5003044;28;20037;-78
2022/10/01 00:29:06;;;;;;;3.83;2.10;;;10.40;82.20;;;;;;5005540;28;20092;-79
2022/10/01 00:31:31;;;;;;;5.53;2.30;;;10.40;82.00;;;;;;5015135;28;20099;-79
2022/10/01 00:34:03;;;;;;;3.58;2.10;;;10.50;81.40;;;;;;5000368;28;20437;-79
2022/10/01 00:36:30;;;;;;;5.00;2.20;;;10.50;81.70;;;;;;5014821;28;20033;-79
2022/10/01 00:38:59;;;;;;;4.03;1.90;;;10.50;82.00;;;;;;5013153;28;20041;-78
2022/10/01 00:41:26;;;;;;;4.65;2.70;;;10.40;82.20;;;;;;5008293;28;20026;-78
2022/10/01 00:43:57;;;;;;;5.65;2.20;;;10.30;82.20;;;;;;5014065;28;20037;-78
2022/10/01 00:46:41;;;;;;;2.90;1.83;;;10.30;82.40;;;;;;5003144;28;20446;-78
2022/10/01 00:49:12;;;;;;;3.97;1.90;;;10.30;82.30;;;;;;4992436;28;20026;-78
2022/10/01 00:51:47;;;;;;;4.15;2.33;;;10.20;82.80;;;;;;5007649;28;20148;-77
2022/10/01 00:54:17;;;;;;;7.22;1.88;;;10.30;82.30;;;;;;5007387;28;20387;-78
2022/10/01 00:56:43;;;;;;;3.25;1.95;;;10.20;82.70;;;;;;5004345;28;20046;-78
2022/10/01 00:59:10;;;;;;;7.72;2.80;;;10.30;82.80;;;;;;5007502;28;20100;-79
2022/10/01 01:01:37;;;;;;;4.97;2.38;;;10.20;82.90;;;;;;5002129;28;20046;-78
2022/10/01 01:04:03;;;;;;;5.18;2.30;;;10.40;82.30;;;;;;4994712;28;20026;-78
2022/10/01 01:06:29;;;;;;;4.45;2.63;;;10.40;82.50;;;;;;5006979;28;20109;-77
2022/10/01 01:08:55;;;;;;;10.05;2.72;;;10.30;82.70;;;;;;5015898;28;20116;-78
2022/10/01 01:11:38;;;;;;;5.00;2.30;;;10.40;82.40;;;;;;5006691;28;20026;-78
2022/10/01 01:14:25;;;;;;;5.90;2.22;;;10.40;82.30;;;;;;5007769;28;20106;-78
2022/10/01 01:16:58;;;;;;;4.28;1.95;;;10.50;82.10;;;;;;5006248;28;20065;-78
2022/10/01 01:20:07;;;;;;;4.28;2.22;;;10.50;82.00;;;;;;5002507;28;20201;-78
2022/10/01 01:22:36;;;;;;;4.30;2.30;;;10.50;81.70;;;;;;5002540;28;20037;-78
2022/10/01 01:25:18;;;;;;;3.65;1.75;;;10.50;81.80;;;;;;5004895;28;20030;-78
2022/10/01 01:27:58;;;;;;;4.65;2.47;;;10.50;81.70;;;;;;5003566;28;20099;-78
2022/10/01 01:30:23;;;;;;;5.22;2.03;;;10.50;81.70;;;;;;5006242;28;20072;-79
2022/10/01 01:33:01;;;;;;;4.00;2.10;;;10.60;81.50;;;;;;5008949;28;20097;-78
2022/10/01 01:35:35;;;;;;;4.72;2.20;;;10.50;81.70;;;;;;5003832;28;20216;-77
2022/10/01 01:38:06;;;;;;;4.47;2.40;;;10.60;81.40;;;;;;5000457;28;20161;-79
2022/10/01 01:40:35;;;;;;;5.93;2.25;;;10.70;80.90;;;;;;5003130;28;20038;-78
2022/10/01 01:43:04;;;;;;;4.90;2.22;;;10.60;81.60;;;;;;5008569;28;20038;-79
2022/10/01 01:45:31;;;;;;;4.97;2.10;;;10.60;81.10;;;;;;5011017;28;20033;-78
2022/10/01 01:47:59;;;;;;;3.70;2.10;;;10.60;81.30;;;;;;5012453;28;20204;-79
2022/10/01 01:50:28;;;;;;;5.13;2.47;;;10.60;81.70;;;;;;5008737;28;20327;-78
2022/10/01 01:52:54;;;;;;;4.43;2.00;;;10.60;81.10;;;;;;5011231;28;20324;-77
2022/10/01 01:55:23;;;;;;;8.23;2.20;;;10.70;80.90;;;;;;5004032;28;20082;-78
2022/10/01 01:57:50;;;;;;;7.03;2.05;;;10.70;80.90;;;;;;5010140;28;20477;-78
2022/10/01 02:00:15;;;;;;;4.32;2.03;;;10.60;81.40;;;;;;5009784;28;20049;-78
2022/10/01 02:02:48;;;;;;;4.18;2.10;;;10.60;81.70;;;;;;5008877;28;20030;-78
2022/10/01 02:05:18;;;;;;;4.30;2.10;;;10.70;81.00;;;;;;5006890;28;20025;-78
2022/10/01 02:07:53;;;;;;;5.38;2.03;;;10.70;81.00;;;;;;5009457;28;20122;-78
2022/10/01 02:10:30;;;;;;;3.95;2.20;;;10.70;80.80;;;;;;5006826;28;20498;-78
2022/10/01 02:13:34;;;;;;;6.90;1.98;;;10.80;80.20;;;;;;5017037;28;20446;-77
2022/10/01 02:16:00;;;;;;;3.33;1.83;;;10.90;80.20;;;;;;5002564;28;20403;-77
2022/10/01 02:18:33;;;;;;;4.13;2.05;;;10.90;80.10;;;;;;5011783;28;20026;-78
2022/10/01 02:21:17;;;;;;;5.43;2.13;;;10.90;80.00;;;;;;5009285;28;20034;-78
2022/10/01 02:23:57;;;;;;;3.58;1.90;;;11.00;79.80;;;;;;5000205;28;20335;-77
2022/10/01 02:26:25;;;;;;;5.78;1.95;;;10.90;80.00;;;;;;5003568;28;20582;-78
2022/10/01 02:28:53;;;;;;;4.57;2.13;;;10.90;80.40;;;;;;5003047;28;20034;-78
2022/10/01 02:31:21;;;;;;;3.33;2.00;;;10.90;80.40;;;;;;5006808;28;20041;-78
2022/10/01 02:33:49;;;;;;;4.95;2.08;;;11.00;79.60;;;;;;5010359;28;20526;-78
2022/10/01 02:36:16;;;;;;;3.90;2.13;;;11.00;79.70;;;;;;5007359;28;20371;-77
2022/10/01 02:38:44;;;;;;;3.72;1.90;;;11.10;79.20;;;;;;5008667;28;20061;-77
2022/10/01 02:41:16;;;;;;;6.03;1.92;;;11.00;79.30;;;;;;5002651;28;20148;-77
2022/10/01 02:43:52;;;;;;;5.10;2.17;;;11.00;79.90;;;;;;5003287;28;20301;-77
2022/10/01 02:46:56;;;;;;;2.78;1.85;;;11.00;80.00;;;;;;4997624;28;20124;-78
2022/10/01 02:49:23;;;;;;;3.28;1.60;;;11.00;79.70;;;;;;4983438;28;20045;-78
2022/10/01 02:51:58;;;;;;;4.07;2.03;;;11.00;79.60;;;;;;5000196;28;20527;-78
2022/10/01 02:54:33;;;;;;;3.03;2.00;;;11.00;79.50;;;;;;5003047;28;20332;-78
2022/10/01 02:59:43;;;;;;;5.07;2.22;;;10.90;79.90;;;;;;5007311;28;20085;-78
2022/10/01 03:02:09;;;;;;;4.63;2.00;;;10.90;79.70;;;;;;5004187;28;20057;-78
2022/10/01 03:04:35;;;;;;;3.83;1.65;;;10.90;80.20;;;;;;5007024;28;20102;-78
2022/10/01 03:07:03;;;;;;;4.20;1.80;;;11.00;79.70;;;;;;5011072;28;20044;-78
2022/10/01 03:09:30;;;;;;;4.53;2.20;;;11.00;79.80;;;;;;5009161;28;20022;-77
2022/10/01 03:11:56;;;;;;;5.07;1.83;;;11.00;79.50;;;;;;5010978;28;20026;-77
2022/10/01 03:14:23;;;;;;;3.17;1.75;;;11.00;80.00;;;;;;5008232;28;20053;-77
2022/10/01 03:16:49;;;;;;;2.90;1.55;;;10.90;80.10;;;;;;5009459;28;20029;-77
2022/10/01 03:19:14;;;;;;;4.85;2.22;;;10.90;80.20;;;;;;5009375;28;20064;-77
2022/10/01 03:21:40;;;;;;;4.53;1.90;;;10.80;81.40;;;;;;5008650;28;20033;-77
2022/10/01 03:24:06;;;;;;;2.53;1.70;;;10.70;82.30;;;;;;5006506;28;20037;-77
2022/10/01 03:26:31;;;;;;;6.50;2.40;;;10.60;83.50;;;;;;5015874;28;20033;-76
2022/10/01 03:28:57;;;;;;;3.78;2.22;;;10.50;84.50;;;;;;5009561;28;20118;-77
2022/10/01 03:31:22;;;;;;;4.65;2.20;;;10.30;85.60;;;;;;5007311;28;20061;-76
2022/10/01 03:33:48;;;;;;;5.93;2.80;;;10.20;86.20;;;;;;5005980;28;20187;-76
2022/10/01 03:36:14;;;;;;;7.30;2.65;;;10.10;87.20;;;;;;5000375;28;20038;-77
2022/10/01 03:38:39;;;;;;;3.55;2.47;;;10.00;87.90;;;;;;4999384;28;20152;-77
2022/10/01 03:41:05;;;;;;;5.22;2.53;;;10.00;88.10;;;;;;5005244;28;20034;-76
2022/10/01 03:43:30;;;;;;;5.15;2.75;;;9.90;88.60;;;;;;5007280;28;20098;-76
2022/10/01 03:45:56;;;;;;;6.90;3.20;;;9.80;89.20;;;;;;5014509;28;20034;-77
2022/10/01 03:48:22;;;;;;;6.05;3.20;;;9.80;89.60;;;;;;5008682;28;20133;-77
2022/10/01 03:50:58;;;;;;;6.63;2.65;;;9.70;90.20;;;;;;5008249;28;20108;-77
2022/10/01 03:53:26;;;;;;;5.75;2.92;;;9.70;90.10;;;;;;5002856;28;20052;-77
2022/10/01 03:55:51;;;;;;;4.75;3.00;;;9.70;90.30;;;;;;5003410;28;20109;-77
2022/10/01 03:58:17;;;;;;;5.43;3.10;;;9.70;90.30;;;;;;5007161;28;20508;-76
2022/10/01 04:00:45;;;;;;;6.82;3.08;;;9.70;90.80;;;;;;5009019;28;20091;-77
2022/10/01 04:03:11;;;;;;;5.78;3.25;;;9.70;91.00;;;;;;5010262;28;20413;-77
2022/10/01 04:05:36;;;;;;;5.20;3.40;;;9.60;91.10;;;;;;5005925;28;20041;-77
2022/10/01 04:08:02;;;;;;;6.72;3.28;;;9.60;91.20;;;;;;5007852;28;20350;-77
2022/10/01 04:10:27;;;;;;;7.25;3.45;;;9.60;91.30;;;;;;5000592;28;20049;-77
2022/10/01 04:12:54;;;;;;;6.45;3.42;;;9.50;91.70;;;;;;5007876;28;20064;-77
2022/10/01 04:15:20;;;;;;;7.15;3.50;;;9.50;91.80;;;;;;5008798;28;20478;-77
2022/10/01 04:17:46;;;;;;;4.45;3.03;;;9.50;92.20;;;;;;5022632;28;20060;-76
2022/10/01 04:20:12;;;;;;;6.57;3.28;;;9.50;92.40;;;;;;5008311;28;20108;-77
2022/10/01 04:22:42;;;;;;;6.15;3.05;;;9.40;92.70;;;;;;5008373;28;20030;-76
2022/10/01 04:25:10;;;;;;;5.78;3.10;;;9.40;92.80;;;;;;5008054;28;20413;-77
2022/10/01 04:27:40;;;;;;;7.72;3.33;;;9.40;93.10;;;;;;5001998;28;20045;-76
2022/10/01 04:30:08;;;;;;;9.27;3.80;;;9.30;93.30;;;;;;5007588;28;20029;-68
2022/10/01 04:32:34;;;;;;;4.78;3.15;;;9.30;93.50;;;;;;5008192;28;20029;-67
2022/10/01 04:35:01;;;;;;;5.97;3.28;;;9.20;93.70;;;;;;5006535;28;20057;-68
2022/10/01 04:37:27;;;;;;;5.50;3.50;;;9.20;93.90;;;;;;5008637;28;20034;-66
2022/10/01 04:39:53;;;;;;;6.13;3.40;;;9.20;93.90;;;;;;5007216;28;20045;-66
2022/10/01 04:42:19;;;;;;;5.25;3.58;;;9.20;93.70;;;;;;5004715;28;20045;-67
2022/10/01 04:44:45;;;;;;;7.63;3.75;;;9.20;93.90;;;;;;4997411;28;20065;-67
2022/10/01 04:47:10;;;;;;;5.80;3.42;;;9.20;94.10;;;;;;5009822;28;20034;-67
2022/10/01 04:49:36;;;;;;;6.68;3.80;;;9.10;94.50;;;;;;5007014;28;20049;-67
2022/10/01 04:52:02;;;;;;;6.43;3.67;;;9.10;94.40;;;;;;5008193;28;20045;-67
2022/10/01 04:54:28;;;;;;;6.25;4.03;;;9.10;94.60;;;;;;5006262;28;20041;-67
2022/10/01 04:56:53;;;;;;;9.40;3.95;;;9.10;94.90;;;;;;4996224;28;20479;-67
2022/10/01 04:59:19;;;;;;;5.93;3.55;;;9.10;94.70;;;;;;5005180;28;20129;-68
2022/10/01 05:01:45;;;;;;;6.72;4.50;;;9.10;94.90;;;;;;5008931;28;20214;-68
2022/10/01 05:04:11;;;;;;;5.90;3.67;;;9.10;95.10;;;;;;5008011;28;20149;-66
2022/10/01 05:06:37;;;;;;;5.10;3.47;;;9.10;95.20;;;;;;5008145;28;20038;-67
2022/10/01 05:09:03;;;;;;;9.95;3.90;;;9.10;95.30;;;;;;5007575;28;20030;-67
2022/10/01 05:11:29;;;;;;;7.72;3.80;;;9.10;95.50;;;;;;5017507;28;20125;-67
2022/10/01 05:13:55;;;;;;;6.38;4.18;;;9.10;95.50;;;;;;5020079;28;20358;-67
2022/10/01 05:16:21;;;;;;;6.82;3.92;;;9.10;95.60;;;;;;5005779;28;20026;-68
2022/10/01 05:18:46;;;;;;;9.88;4.63;;;9.10;95.80;;;;;;4995619;28;20034;-67
2022/10/01 05:21:14;;;;;;;5.63;3.72;;;9.10;95.80;;;;;;5011817;28;20407;-67
2022/10/01 05:23:40;;;;;;;7.20;3.45;;;9.10;95.90;;;;;;5010521;28;20267;-68
2022/10/01 05:26:06;;;;;;;6.22;3.60;;;9.10;96.10;;;;;;5004234;28;20045;-67
2022/10/01 05:28:32;;;;;;;10.48;3.92;;;9.00;96.30;;;;;;5012335;28;20081;-67
2022/10/01 05:30:59;;;;;;;10.23;4.10;;;9.00;96.40;;;;;;5010953;28;20029;-66
2022/10/01 05:33:25;;;;;;;6.07;3.97;;;9.10;96.40;;;;;;5006663;28;20037;-67
2022/10/01 05:35:51;;;;;;;5.72;3.95;;;9.10;96.50;;;;;;5010349;28;20033;-66
2022/10/01 05:38:17;;;;;;;6.47;3.50;;;9.10;96.70;;;;;;5007824;28;20030;-65
2022/10/01 05:40:46;;;;;;;6.68;4.03;;;9.00;96.70;;;;;;5008777;28;20036;-66
2022/10/01 05:43:12;;;;;;;7.65;4.40;;;9.10;96.80;;;;;;5008074;28;20397;-66
2022/10/01 05:45:38;;;;;;;7.07;4.10;;;9.10;96.90;;;;;;5010688;28;20469;-66
2022/10/01 05:48:06;;;;;;;6.95;4.15;;;9.10;96.90;;;;;;5000803;28;20064;-68
2022/10/01 05:50:34;;;;;;;6.47;4.35;;;9.10;97.00;;;;;;5007248;28;20030;-65
2022/10/01 05:53:01;;;;;;;4.88;3.55;;;9.10;97.00;;;;;;5009088;28;20014;-66
2022/10/01 05:55:32;;;;;;;10.02;3.90;;;9.10;97.00;;;;;;5001419;28;20108;-65
2022/10/01 05:58:02;;;;;;;;;;;9.20;96.90;;;;;;5007423;28;20111;-66
2022/10/01 06:00:29;;;;;;;7.45;3.72;;;9.20;97.00;;;;;;5008524;28;19914;-66
2022/10/01 06:02:55;;;;;;;7.75;4.30;;;9.10;97.00;;;;;;4994734;28;20067;-66
2022/10/01 06:05:21;;;;;;;6.55;4.20;;;9.20;97.10;;;;;;5009511;28;20091;-67
2022/10/01 06:07:48;;;;;;;6.75;3.75;;;9.20;97.10;;;;;;4998586;28;20413;-66
2022/10/01 06:10:15;;;;;;;7.25;4.13;;;9.10;97.20;;;;;;5004713;28;20061;-66
2022/10/01 06:12:42;;;;;;;10.23;4.35;;;9.10;97.30;;;;;;5006985;28;20454;-66
2022/10/01 06:15:08;;;;;;;8.60;3.80;;;9.20;97.40;;;;;;5004018;28;20057;-66
2022/10/01 06:17:33;;;;;;;8.95;4.72;;;9.10;97.40;;;;;;5010217;28;20038;-66
2022/10/01 06:19:59;;;;;;;7.90;3.83;;;9.10;97.50;;;;;;5005203;28;20080;-67
2022/10/01 06:22:24;;;;;;;6.88;4.25;;;9.20;97.50;;;;;;5020558;28;20385;-68
2022/10/01 06:24:50;;;;;;;7.43;4.18;;;9.20;97.50;;;;;;5004498;28;20436;-65
2022/10/01 06:27:15;;;;;;;6.90;4.10;;;9.20;97.50;;;;;;5005345;28;20109;-66
2022/10/01 06:29:41;;;;;;;6.72;4.15;;;9.20;97.40;;;;;;5003384;28;20070;-67
2022/10/01 06:32:09;;;;;;;7.72;4.25;;;9.20;97.40;;;;;;5006812;28;20034;-66
2022/10/01 06:34:35;;;;;;;7.90;3.92;;;9.30;97.40;;;;;;5004420;28;20045;-66
2022/10/01 06:37:00;;;;;;;5.50;3.65;;;9.30;97.40;;;;;;5008960;28;20038;-67
2022/10/01 06:39:25;;;;;;;6.93;3.83;;;9.30;97.50;;;;;;5007792;28;20534;-66
2022/10/01 06:41:51;;;;;;;6.63;3.78;;;9.30;97.50;;;;;;5004924;28;20152;-65
2022/10/01 06:44:18;;;;;;;6.72;4.05;;;9.20;97.60;;;;;;5002439;28;20038;-67
2022/10/01 06:46:44;;;;;;;7.50;4.47;;;9.30;97.70;;;;;;5008093;28;20171;-67
2022/10/01 06:49:10;;;;;;;10.25;4.20;;;9.30;97.80;;;;;;5008273;28;20030;-66
2022/10/01 06:54:19;;;;;;;7.07;3.75;;;9.30;97.90;;;;;;5006552;28;20041;-67
2022/10/01 06:56:45;;;;;;;9.52;4.35;;;9.40;97.90;;;;;;5002700;28;20041;-66
2022/10/01 06:59:10;;;;;;;6.35;4.03;;;9.40;98.00;;;;;;5005631;28;20126;-66
2022/10/01 07:01:36;;;;;;;7.57;3.63;;;9.40;98.00;;;;;;5001721;28;20129;-66
2022/10/01 07:04:01;;;;;;;7.78;3.85;;;9.40;98.00;;;;;;5010039;28;20181;-66
2022/10/01 07:06:27;;;;;;;7.30;3.83;;;9.40;98.00;;;;;;5007366;28;20037;-66
2022/10/01 07:08:53;;;;;;;9.15;4.43;;;9.40;98.00;;;;;;5002147;28;20347;-66
2022/10/01 07:11:18;;;;;;;8.35;3.60;;;9.50;98.00;;;;;;5005408;28;20029;-65
2022/10/01 07:13:44;;;;;;;6.25;3.22;;;9.50;98.00;;;;;;5002990;28;20117;-66
2022/10/01 07:16:10;;;;;;;7.18;4.05;;;9.50;98.00;;;;;;5004853;28;20033;-65
2022/10/01 07:18:35;;;;;;;6.55;3.50;;;9.60;98.00;;;;;;5003771;28;20041;-65
2022/10/01 07:21:01;;;;;;;5.55;3.25;;;9.60;98.00;;;;;;4999634;28;20138;-65
2022/10/01 07:23:27;;;;;;;7.57;3.45;;;9.60;98.10;;;;;;4993944;28;20121;-65
2022/10/01 07:25:53;;;;;;;8.52;3.53;;;9.60;98.20;;;;;;5001646;28;20080;-66
2022/10/01 07:28:22;;;;;;;6.90;3.45;;;9.60;98.20;;;;;;4997656;28;20084;-66
2022/10/01 07:31:00;;;;;;;7.30;3.28;;;9.60;98.20;;;;;;5003242;28;20030;-66
2022/10/01 07:33:26;;;;;;;7.22;3.28;;;9.60;98.30;;;;;;5002455;28;20089;-65
2022/10/01 07:35:51;;;;;;;4.28;3.00;;;9.60;98.30;;;;;;5001408;28;20417;-66
2022/10/01 07:38:17;;;;;;;8.43;3.22;;;9.60;98.30;;;;;;5005842;28;20120;-65
2022/10/01 07:40:42;;;;;;;5.47;3.00;;;9.60;98.40;;;;;;5004727;28;20087;-65
2022/10/01 07:43:08;;;;;;;8.93;3.10;;;9.60;98.40;;;;;;5005208;28;20033;-66
2022/10/01 07:45:34;;;;;;;5.25;3.05;;;9.60;98.40;;;;;;5008160;28;20085;-66
2022/10/01 07:48:01;;;;;;;5.32;3.47;;;9.60;98.50;;;;;;5004296;28;20026;-65
2022/10/01 07:50:29;;;;;;;6.10;3.03;;;9.60;98.50;;;;;;5000635;28;20033;-67
2022/10/01 07:52:56;;;;;;;3.90;2.67;;;9.60;98.50;;;;;;5007027;28;20128;-67
2022/10/01 07:55:25;;;;;;;5.78;2.80;;;9.60;98.60;;;;;;4997906;28;20053;-66
2022/10/01 07:57:55;;;;;;;6.47;3.10;;;9.60;98.60;;;;;;4998511;28;20085;-67
2022/10/01 08:00:23;;;;;;;4.35;2.72;;;9.60;98.70;;;;;;5001006;28;20037;-66
2022/10/01 08:02:50;;;;;;;6.00;3.47;;;9.70;98.70;;;;;;5001523;28;20044;-66
2022/10/01 08:05:17;;;;;;;5.95;2.90;;;9.70;98.80;;;;;;5002780;28;20226;-66
2022/10/01 08:07:45;;;;;;;4.85;2.65;;;9.70;98.80;;;;;;5001060;28;20103;-66
2022/10/01 08:10:11;;;;;;;4.07;2.72;;;9.70;98.80;;;;;;4998568;28;20026;-67
2022/10/01 08:12:37;;;;;;;5.22;2.88;;;9.70;98.90;;;;;;4995290;28;20030;-66
2022/10/01 08:15:05;;;;;;;5.35;3.08;;;9.80;98.90;;;;;;5003456;28;20408;-65
2022/10/01 08:17:32;;;;;;;4.85;2.97;;;9.80;98.90;;;;;;5007010;28;20058;-67
2022/10/01 08:19:57;;;;;;;5.57;2.80;;;9.80;99.00;;;;;;5005131;28;20038;-65
2022/10/01 08:22:23;;;;;;;4.22;2.90;;;9.80;99.00;;;;;;5006042;28;20111;-66
2022/10/01 08:24:48;;;;;;;4.63;2.90;;;9.80;99.00;;;;;;5001674;28;20038;-65
2022/10/01 08:27:14;;;;;;;4.53;2.58;;;9.80;99.10;;;;;;4995083;28;20063;-66
2022/10/01 08:29:42;;;;;;;5.60;2.70;;;9.90;99.10;;;;;;4994758;28;20096;-69
2022/10/01 08:32:08;;;;;;;5.05;2.88;;;9.80;99.10;;;;;;5003528;28;20034;-67
2022/10/01 08:34:34;;;;;;;4.20;2.80;;;9.90;99.10;;;;;;5003934;28;20430;-66
2022/10/01 08:36:59;;;;;;;5.18;2.67;;;10.00;99.20;;;;;;5002385;28;20117;-66
2022/10/01 08:39:24;;;;;;;4.45;2.35;;;10.00;99.20;;;;;;5006273;28;20371;-66
2022/10/01 08:41:56;;;;;;;5.80;2.70;;;10.00;99.20;;;;;;5000323;28;20042;-67
2022/10/01 08:44:28;;;;;;;4.45;3.05;;;10.00;99.20;;;;;;5003781;28;20358;-68
2022/10/01 08:47:02;;;;;;;5.65;3.42;;;10.10;99.20;;;;;;5006032;28;20037;-67
2022/10/01 08:49:37;;;;;;;5.63;3.22;;;10.10;99.20;;;;;;5003900;28;20125;-67
2022/10/01 08:52:23;;;;;;;5.53;3.58;;;10.10;99.20;;;;;;5000722;28;20034;-67
2022/10/01 08:54:59;;;;;;;5.97;3.05;;;10.20;99.30;;;;;;5001117;28;20063;-67
2022/10/01 08:57:29;;;;;;;6.90;3.70;;;10.20;99.30;;;;;;5001567;28;20054;-67
2022/10/01 08:59:58;;;;;;;7.67;3.90;;;10.20;99.20;;;;;;5003341;28;20579;-68
2022/10/01 09:02:30;;;;;;;8.23;3.53;;;10.20;99.30;;;;;;5003884;28;20359;-67
2022/10/01 09:04:58;;;;;;;5.45;3.35;;;10.20;99.30;;;;;;5010625;28;20048;-67
2022/10/01 09:07:43;;;;;;;6.40;4.80;;;10.30;99.30;;;;;;5011441;28;20026;-67
2022/10/01 09:10:32;;;;;;;6.50;3.83;;;10.30;99.30;;;;;;5007615;28;20087;-66
2022/10/01 09:13:25;;;;;;;7.55;4.03;;;10.40;99.30;;;;;;5007352;28;20022;-70
2022/10/01 09:16:09;;;;;;;6.93;4.00;;;10.50;99.40;;;;;;5007727;28;20553;-66
2022/10/01 09:18:49;;;;;;;6.85;4.35;;;10.50;99.30;;;;;;5012134;28;20030;-66
2022/10/01 09:21:24;;;;;;;6.82;4.35;;;10.50;99.40;;;;;;5003702;28;20278;-67
2022/10/01 09:24:13;;;;;;;8.07;4.38;;;10.60;99.40;;;;;;5001498;28;20033;-70
2022/10/01 09:26:45;;;;;;;5.65;4.10;;;10.60;99.30;;;;;;5002968;28;20450;-67
2022/10/01 09:29:16;;;;;;;8.23;4.47;;;10.70;99.30;;;;;;5010187;28;20358;-66
2022/10/01 09:31:45;;;;;;;6.45;4.25;;;10.80;99.30;;;;;;5005867;28;20044;-70
2022/10/01 09:34:45;;;;;;;5.47;3.75;;;10.70;99.20;;;;;;5002792;28;20070;-68
2022/10/01 09:37:22;;;;;;;7.47;4.82;;;10.80;99.20;;;;;;4985467;28;20191;-67
2022/10/01 09:40:13;;;;;;;8.35;4.47;;;10.90;99.20;;;;;;5007486;28;21557;-67
2022/10/01 09:42:39;;;;;;;5.45;4.43;;;11.00;99.20;;;;;;5004979;28;20029;-67
2022/10/01 09:45:05;;;;;;;7.20;4.97;;;11.00;99.10;;;;;;5006158;28;20475;-68
2022/10/01 09:47:32;;;;;;;9.52;4.57;;;11.10;99.10;;;;;;5005207;28;20030;-68
2022/10/01 09:50:00;;;;;;;7.30;4.63;;;11.10;99.10;;;;;;5000512;28;20029;-65
2022/10/01 09:52:35;;;;;;;4.88;3.90;;;11.20;99.00;;;;;;5008587;28;20061;-68
2022/10/01 09:55:18;;;;;;;6.53;4.75;;;11.30;99.00;;;;;;5005624;28;20105;-68
2022/10/01 09:57:51;;;;;;;8.10;4.40;;;11.50;98.90;;;;;;5005139;28;20045;-65
2022/10/01 10:00:20;;;;;;;6.53;4.35;;;11.80;98.90;;;;;;5010561;28;20060;-65
2022/10/01 10:02:48;;;;;;;6.82;4.20;;;11.90;98.50;;;;;;5009559;28;20040;-64
2022/10/01 10:05:19;;;;;;;5.88;4.07;;;11.90;98.30;;;;;;5008638;28;20037;-65
2022/10/01 10:08:01;;;;;;;4.40;3.38;;;12.00;98.10;;;;;;5006621;28;20049;-65
2022/10/01 10:10:38;;;;;;;6.20;3.50;;;12.00;98.00;;;;;;5004461;28;20336;-65
2022/10/01 10:13:17;;;;;;;7.45;3.30;;;12.10;98.00;;;;;;5009393;28;20032;-68
2022/10/01 10:15:49;;;;;;;5.07;3.47;;;12.20;97.90;;;;;;5008312;28;20478;-66
2022/10/01 10:18:16;;;;;;;5.40;3.47;;;12.60;97.50;;;;;;5000450;28;20120;-69
2022/10/01 10:20:44;;;;;;;5.47;3.17;;;12.80;97.00;;;;;;5006644;28;20132;-65
2022/10/01 10:23:18;;;;;;;6.47;3.13;;;12.60;96.60;;;;;;5005649;28;20088;-66
2022/10/01 10:25:59;;;;;;;5.03;3.17;;;12.60;96.70;;;;;;5005179;28;20140;-65
2022/10/01 10:28:27;;;;;;;5.95;3.05;;;12.60;96.70;;;;;;5003020;28;20052;-65
2022/10/01 10:30:54;;;;;;;5.78;2.95;;;12.60;96.70;;;;;;4998923;28;20030;-68
2022/10/01 10:33:23;;;;;;;9.23;3.15;;;12.80;96.50;;;;;;4988834;28;20045;-66
2022/10/01 10:36:01;;;;;;;4.78;2.95;;;12.90;96.40;;;;;;5008812;28;20057;-66
2022/10/01 10:38:32;;;;;;;7.45;3.10;;;13.00;96.10;;;;;;5005772;28;20049;-67
2022/10/01 10:40:58;;;;;;;5.03;3.15;;;13.30;96.20;;;;;;4997484;28;20030;-67
2022/10/01 10:43:29;;;;;;;7.15;2.85;;;13.50;95.90;;;;;;4999291;28;20037;-67
2022/10/01 10:45:55;;;;;;;;;;;13.70;95.40;;;;;;5007800;28;20136;-67
2022/10/01 10:48:24;;;;;;;3.88;2.60;;;13.80;94.60;;;;;;5009399;28;19915;-68
2022/10/01 10:50:58;;;;;;;10.13;3.50;;;14.00;94.00;;;;;;5002452;28;20056;-67
2022/10/01 10:53:27;;;;;;;3.58;2.35;;;14.00;93.50;;;;;;5006813;28;20056;-68
2022/10/01 10:56:02;;;;;;;5.05;2.60;;;14.10;93.60;;;;;;5000790;28;20053;-68
2022/10/01 10:58:31;;;;;;;6.00;3.00;;;14.40;93.20;;;;;;5008380;28;20128;-68
2022/10/01 11:01:00;;;;;;;7.63;2.70;;;14.50;91.80;;;;;;5011227;28;20029;-68
2022/10/01 11:03:28;;;;;;;3.63;2.33;;;14.50;91.90;;;;;;5010912;28;20022;-68
2022/10/01 11:06:01;;;;;;;4.50;2.20;;;14.30;92.10;;;;;;5009875;28;20332;-67
2022/10/01 11:08:27;;;;;;;6.38;2.17;;;14.00;92.30;;;;;;5009069;28;20121;-69
2022/10/01 11:11:16;;;;;;;5.00;2.28;;;14.10;92.90;;;;;;5002227;28;20554;-69
2022/10/01 11:14:07;;;;;;;8.07;2.50;;;14.00;93.00;;;;;;4999096;28;20504;-67
2022/10/01 11:17:11;;;;;;;5.93;2.30;;;13.90;93.00;;;;;;4998731;28;20105;-67
2022/10/01 11:19:58;;;;;;;6.68;2.45;;;14.00;93.10;;;;;;4993312;28;20029;-66
2022/10/01 11:23:03;;;;;;;6.93;2.45;;;14.20;92.50;;;;;;4996459;28;20053;-68
2022/10/01 11:25:46;;;;;;;7.13;2.50;;;14.10;92.30;;;;;;5002892;28;20035;-70
2022/10/01 11:28:45;;;;;;;5.32;2.38;;;14.30;92.10;;;;;;5001431;28;20065;-69
2022/10/01 11:31:17;;;;;;;7.43;2.47;;;14.30;92.00;;;;;;4998698;28;20399;-67
2022/10/01 11:34:07;;;;;;;10.15;2.35;;;14.40;91.80;;;;;;4998770;28;20057;-67
2022/10/01 11:36:55;;;;;;;5.15;2.00;;;14.30;91.50;;;;;;5002069;28;20041;-70
2022/10/01 11:39:24;;;;;;;5.53;2.40;;;14.40;92.00;;;;;;5003347;28;20120;-67
2022/10/01 11:41:54;;;;;;;6.00;2.08;;;14.40;91.80;;;;;;5002155;28;20029;-68
2022/10/01 11:44:32;;;;;;;7.03;2.17;;;14.60;91.90;;;;;;4998131;28;20454;-66
2022/10/01 11:47:19;;;;;;;6.65;2.20;;;14.50;91.00;;;;;;5001334;28;20037;-66
2022/10/01 11:50:20;;;;;;;3.78;2.17;;;14.60;91.10;;;;;;4996357;28;20441;-68
2022/10/01 11:53:04;;;;;;;7.60;2.10;;;14.80;89.90;;;;;;5002879;28;20038;-66
2022/10/01 11:58:51;;;;;;;6.30;2.17;;;14.70;90.60;;;;;;5002419;28;20112;-66
2022/10/01 12:01:23;;;;;;;10.77;2.20;;;15.40;89.40;;;;;;5003801;28;20144;-67
2022/10/01 12:03:52;;;;;;;6.20;1.55;;;16.60;86.30;;;;;;4995144;28;20030;-68
2022/10/01 12:06:27;;;;;;;6.18;1.80;;;16.60;83.80;;;;;;4991325;28;20041;-67
2022/10/01 12:09:12;;;;;;;7.88;1.42;;;17.00;82.70;;;;;;5002400;28;20525;-68
2022/10/01 12:11:46;;;;;;;4.45;1.50;;;16.60;83.20;;;;;;5001280;28;20037;-67
2022/10/01 12:14:18;;;;;;;7.65;1.92;;;16.60;82.80;;;;;;4998943;28;20065;-70
2022/10/01 12:16:58;;;;;;;4.47;1.10;;;16.60;82.40;;;;;;4997217;28;20053;-70
2022/10/01 12:19:34;;;;;;;4.47;1.10;;;17.10;82.00;;;;;;4998824;28;20030;-67
2022/10/01 12:22:16;;;;;;;6.72;1.40;;;17.80;78.90;;;;;;5005661;28;20059;-68
2022/10/01 12:24:43;;;;;;;8.15;1.42;;;18.30;78.30;;;;;;5000918;28;20117;-68
2022/10/01 12:27:46;;;;;;;2.33;1.00;;;18.10;77.20;;;;;;4994369;28;20045;-68
2022/10/01 12:30:18;;;;;;;8.38;1.10;;;17.90;77.10;;;;;;4999543;28;20036;-68
2022/10/01 12:32:59;;;;;;;3.05;1.05;;;18.30;77.70;;;;;;5007388;28;20405;-68
2022/10/01 12:35:46;;;;;;;5.82;1.10;;;18.60;75.90;;;;;;5003044;28;20066;-68
2022/10/01 12:38:27;;;;;;;5.68;1.15;;;18.80;74.50;;;;;;4999610;28;20065;-68
2022/10/01 12:41:23;;;;;;;3.88;0.98;;;18.80;73.50;;;;;;5002892;28;20027;-67
2022/10/01 12:44:26;;;;;;;7.70;1.25;;;19.00;73.80;;;;;;4997633;28;20137;-67
2022/10/01 12:47:22;;;;;;;12.57;1.42;;;18.80;73.50;;;;;;4999968;28;20106;-67
2022/10/01 12:50:07;;;;;;;4.68;1.42;;;17.90;76.40;;;;;;5008024;28;20034;-67
2022/10/01 12:53:06;;;;;;;5.97;1.27;;;17.50;77.90;;;;;;5007846;28;20485;-67
2022/10/01 12:55:46;;;;;;;3.83;1.17;;;17.00;79.70;;;;;;4998878;28;20045;-68
2022/10/01 12:58:51;;;;;;;7.23;1.50;;;16.50;80.20;;;;;;5000514;28;20064;-68
2022/10/01 13:01:24;;;;;;;3.30;0.93;;;16.20;81.00;;;;;;4998640;28;20708;-66
2022/10/01 13:04:16;;;;;;;4.70;1.38;;;15.90;82.10;;;;;;4998069;28;20037;-66
2022/10/01 13:07:01;;;;;;;4.70;1.20;;;15.70;83.30;;;;;;5002251;28;20318;-68
2022/10/01 13:10:08;;;;;;;4.53;1.10;;;15.40;84.20;;;;;;5000174;28;20383;-66
2022/10/01 13:12:55;;;;;;;6.70;1.30;;;15.10;86.40;;;;;;4962993;28;20053;-66
2022/10/01 13:15:24;;;;;;;7.75;1.67;;;14.60;88.50;;;;;;4996809;28;20041;-66
2022/10/01 13:17:56;;;;;;;7.43;1.77;;;14.20;90.60;;;;;;5002286;28;20034;-66
2022/10/01 13:20:35;;;;;;;4.25;1.40;;;14.00;92.20;;;;;;5000607;28;20541;-67
2022/10/01 13:23:33;;;;;;;5.03;1.90;;;13.80;93.40;;;;;;4999888;28;20048;-66